createdAt,value
2023-03-01T00:00:23.546Z,100815.63
2023-03-01T00:03:31.435Z,100807.66
2023-03-01T00:06:37.821Z,100801.44
2023-03-01T00:09:46.099Z,100802.39
2023-03-01T00:12:52.507Z,100802.48
2023-03-01T00:15:58.453Z,100809.08
2023-03-01T00:19:05.881Z,100805.93
2023-03-01T00:22:12.525Z,100805.93
2023-03-01T00:25:17.563Z,100803.09
2023-03-01T00:28:25.391Z,100793.54
2023-03-01T00:31:34.126Z,100780.95
2023-03-01T00:34:34.072Z,100768.28
2023-03-01T00:37:40.353Z,100762.59
2023-03-01T00:40:47.909Z,100759.20
2023-03-01T00:43:54.585Z,100758.44
2023-03-01T00:47:02.290Z,100754.03
2023-03-01T00:50:08.923Z,100753.95
2023-03-01T00:53:13.712Z,100746.06
2023-03-01T00:56:21.646Z,100747.49
2023-03-01T00:59:28.066Z,100748.69
2023-03-01T01:02:35.689Z,100751.04
2023-03-01T01:05:41.591Z,100743.72
2023-03-01T01:08:48.170Z,100747.11
2023-03-01T01:11:53.969Z,100743.86
2023-03-01T01:14:58.957Z,100739.08
2023-03-01T01:18:04.644Z,100733.62
2023-03-01T01:21:09.882Z,100729.22
2023-03-01T01:24:17.546Z,100730.18
2023-03-01T01:27:23.384Z,100732.15
2023-03-01T01:30:22.468Z,100731.58
2023-03-01T01:33:30.036Z,100728.75
2023-03-01T01:36:29.736Z,100716.41
2023-03-01T01:39:35.008Z,100741.13
2023-03-01T01:42:40.049Z,100730.72
2023-03-01T01:45:48.687Z,100731.62
2023-03-01T01:48:58.024Z,100737.74
2023-03-01T01:52:04.296Z,100736.88
2023-03-01T01:55:14.047Z,100738.22
2023-03-01T01:58:21.592Z,100733.16
2023-03-01T02:01:27.560Z,100742.72
2023-03-01T02:04:34.190Z,100744.11
2023-03-01T02:07:39.912Z,100743.48
2023-03-01T02:10:47.166Z,100746.88
2023-03-01T02:13:53.097Z,100744.77
2023-03-01T02:16:59.641Z,100743.05
2023-03-01T02:20:30.682Z,100727.52
2023-03-01T02:23:35.556Z,100727.28
2023-03-01T02:26:58.203Z,100722.98
2023-03-01T02:30:03.292Z,100718.48
2023-03-01T02:33:11.891Z,100721.55
2023-03-01T02:36:31.653Z,100720.59
2023-03-01T02:39:50.175Z,100717.63
2023-03-01T02:43:08.724Z,100723.98
2023-03-01T02:46:21.316Z,100714.62
2023-03-01T02:49:38.720Z,100714.56
2023-03-01T02:52:58.297Z,100709.11
2023-03-01T02:56:03.582Z,100706.97
2023-03-01T02:59:10.341Z,100710.22
2023-03-01T03:02:17.416Z,100715.81
2023-03-01T03:05:32.238Z,100700.70
2023-03-01T03:08:38.836Z,100702.66
2023-03-01T03:11:44.473Z,100691.72
2023-03-01T03:14:50.277Z,100683.40
2023-03-01T03:17:56.350Z,100677.66
2023-03-01T03:21:03.743Z,100678.28
2023-03-01T03:24:09.609Z,100679.72
2023-03-01T03:27:15.491Z,100678.52
2023-03-01T03:30:22.969Z,100683.06
2023-03-01T03:33:28.320Z,100680.95
2023-03-01T03:36:37.111Z,100675.61
2023-03-01T03:39:42.814Z,100672.07
2023-03-01T03:42:48.447Z,100667.73
2023-03-01T03:45:54.188Z,100665.23
2023-03-01T03:48:54.871Z,100659.16
2023-03-01T03:52:02.110Z,100661.84
2023-03-01T03:55:07.795Z,100658.22
2023-03-01T03:58:15.228Z,100657.35
2023-03-01T04:01:20.101Z,100645.70
2023-03-01T04:04:26.898Z,100636.29
2023-03-01T04:07:32.904Z,100632.72
2023-03-01T04:10:39.489Z,100632.52
2023-03-01T04:13:45.853Z,100632.03
2023-03-01T04:16:52.488Z,100623.05
2023-03-01T04:19:58.002Z,100615.20
2023-03-01T04:23:05.598Z,100612.35
2023-03-01T04:26:12.777Z,100609.47
2023-03-01T04:29:18.272Z,100609.14
2023-03-01T04:32:25.910Z,100602.06
2023-03-01T04:35:31.689Z,100601.34
2023-03-01T04:38:38.078Z,100600.41
2023-03-01T04:41:43.803Z,100605.22
2023-03-01T04:44:51.105Z,100596.87
2023-03-01T04:48:00.492Z,100593.88
2023-03-01T04:51:06.127Z,100589.81
2023-03-01T04:54:13.109Z,100591.92
2023-03-01T04:57:20.148Z,100590.83
2023-03-01T05:00:31.161Z,100584.77
2023-03-01T05:03:37.858Z,100584.86
2023-03-01T05:06:43.512Z,100561.70
2023-03-01T05:09:49.026Z,100572.25
2023-03-01T05:12:55.971Z,100561.37
2023-03-01T05:16:04.816Z,100556.25
2023-03-01T05:19:13.023Z,100572.24
2023-03-01T05:22:18.760Z,100574.10
2023-03-01T05:25:25.439Z,100575.81
2023-03-01T05:28:32.189Z,100589.47
2023-03-01T05:31:39.219Z,100587.34
2023-03-01T05:34:43.060Z,100569.98
2023-03-01T05:37:49.223Z,100567.05
2023-03-01T05:40:54.180Z,100566.64
2023-03-01T05:44:00.494Z,100571.17
2023-03-01T05:47:07.167Z,100578.41
2023-03-01T05:50:12.668Z,100584.37
2023-03-01T05:53:21.195Z,100580.09
2023-03-01T05:56:26.365Z,100578.88
2023-03-01T05:59:31.914Z,100576.04
2023-03-01T06:02:37.508Z,100579.09
2023-03-01T06:05:43.432Z,100578.05
2023-03-01T06:08:49.230Z,100587.36
2023-03-01T06:11:55.455Z,100579.54
2023-03-01T06:15:01.675Z,100583.94
2023-03-01T06:18:06.516Z,100581.09
2023-03-01T06:21:12.326Z,100577.36
2023-03-01T06:24:17.168Z,100575.48
2023-03-01T06:27:23.237Z,100579.68
2023-03-01T06:30:32.227Z,100581.30
2023-03-01T06:33:38.074Z,100585.53
2023-03-01T06:36:44.516Z,100589.97
2023-03-01T06:39:49.944Z,100591.73
2023-03-01T06:42:59.347Z,100581.66
2023-03-01T06:46:05.623Z,100590.98
2023-03-01T06:49:12.262Z,100589.73
2023-03-01T06:52:17.697Z,100584.30
2023-03-01T06:55:26.263Z,100596.19
2023-03-01T06:58:31.253Z,100590.37
2023-03-01T07:01:37.280Z,100592.76
2023-03-01T07:04:43.350Z,100592.31
2023-03-01T07:07:50.073Z,100583.56
2023-03-01T07:10:56.509Z,100587.39
2023-03-01T07:14:04.058Z,100588.84
2023-03-01T07:17:09.247Z,100582.59
2023-03-01T07:20:15.131Z,100576.44
2023-03-01T07:23:21.651Z,100580.85
2023-03-01T07:26:27.106Z,100574.66
2023-03-01T07:29:32.913Z,100581.38
2023-03-01T07:32:38.096Z,100572.31
2023-03-01T07:35:44.816Z,100581.38
2023-03-01T07:38:51.065Z,100577.05
2023-03-01T07:41:56.168Z,100574.44
2023-03-01T07:44:56.063Z,100565.35
2023-03-01T07:48:04.464Z,100561.68
2023-03-01T07:51:09.814Z,100563.09
2023-03-01T07:54:15.838Z,100561.98
2023-03-01T07:57:20.990Z,100563.12
2023-03-01T08:00:28.722Z,100562.58
2023-03-01T08:03:35.278Z,100563.98
2023-03-01T08:06:42.266Z,100560.27
2023-03-01T08:09:49.785Z,100554.01
2023-03-01T08:12:55.688Z,100542.23
2023-03-01T08:15:54.646Z,100529.58
2023-03-01T08:18:59.606Z,100530.00
2023-03-01T08:22:05.542Z,100523.95
2023-03-01T08:25:11.108Z,100516.94
2023-03-01T08:28:16.538Z,100515.58
2023-03-01T08:31:39.437Z,100510.38
2023-03-01T08:34:44.948Z,100503.98
2023-03-01T08:37:50.748Z,100495.73
2023-03-01T08:40:56.412Z,100490.53
2023-03-01T08:44:06.559Z,100492.91
2023-03-01T08:47:13.811Z,100493.41
2023-03-01T08:50:19.104Z,100496.77
2023-03-01T08:53:24.780Z,100489.72
2023-03-01T08:56:31.420Z,100488.13
2023-03-01T08:59:37.645Z,100489.39
2023-03-01T09:02:42.915Z,100490.62
2023-03-01T09:05:48.470Z,100482.21
2023-03-01T09:08:54.413Z,100482.61
2023-03-01T09:12:01.214Z,100477.94
2023-03-01T09:15:07.948Z,100476.19
2023-03-01T09:18:13.862Z,100472.03
2023-03-01T09:21:37.224Z,100479.05
2023-03-01T09:24:30.474Z,100471.94
2023-03-01T09:27:36.677Z,100460.37
2023-03-01T09:30:43.137Z,100450.55
2023-03-01T09:33:49.621Z,100455.35
2023-03-01T09:36:55.239Z,100446.38
2023-03-01T09:40:01.583Z,100439.97
2023-03-01T09:43:20.189Z,100438.27
2023-03-01T09:46:28.164Z,100443.78
2023-03-01T09:49:40.902Z,100443.63
2023-03-01T09:52:58.492Z,100434.59
2023-03-01T09:56:14.719Z,100424.82
2023-03-01T09:59:31.382Z,100420.70
2023-03-01T10:02:43.864Z,100414.80
2023-03-01T10:05:53.252Z,100415.65
2023-03-01T10:09:10.365Z,100412.08
2023-03-01T10:12:16.836Z,100403.22
2023-03-01T10:15:42.803Z,100391.16
2023-03-01T10:18:49.068Z,100386.84
2023-03-01T10:21:59.849Z,100385.84
2023-03-01T10:25:06.526Z,100378.08
2023-03-01T10:28:10.700Z,100379.08
2023-03-01T10:31:17.009Z,100371.45
2023-03-01T10:34:25.798Z,100366.25
2023-03-01T10:37:35.240Z,100362.30
2023-03-01T10:40:40.802Z,100371.12
2023-03-01T10:44:14.358Z,100360.16
2023-03-01T10:47:20.318Z,100360.16
2023-03-01T10:50:36.655Z,100364.20
2023-03-01T10:53:47.528Z,100355.04
2023-03-01T10:57:04.097Z,100346.66
2023-03-01T11:00:13.841Z,100354.48
2023-03-01T11:03:26.291Z,100349.81
2023-03-01T11:06:37.557Z,100351.88
2023-03-01T11:09:48.956Z,100346.56
2023-03-01T11:12:55.001Z,100329.67
2023-03-01T11:16:19.258Z,100344.89
2023-03-01T11:19:30.115Z,100341.04
2023-03-01T11:22:37.785Z,100336.36
2023-03-01T11:26:13.732Z,100332.30
2023-03-01T11:29:25.003Z,100331.24
2023-03-01T11:32:30.546Z,100329.66
2023-03-01T11:35:43.120Z,100329.92
2023-03-01T11:38:51.806Z,100326.36
2023-03-01T11:42:03.556Z,100332.72
2023-03-01T11:45:10.159Z,100327.83
2023-03-01T11:48:50.161Z,100328.20
2023-03-01T11:52:38.084Z,100314.97
2023-03-01T11:56:23.789Z,100319.73
2023-03-01T12:00:03.847Z,100311.52
2023-03-01T12:03:30.220Z,100319.66
2023-03-01T12:07:14.234Z,100313.08
2023-03-01T12:10:39.283Z,100306.48
2023-03-01T12:14:21.328Z,100309.77
2023-03-01T12:18:20.546Z,100307.06
2023-03-01T12:21:47.854Z,100302.73
2023-03-01T12:25:03.632Z,100309.19
2023-03-01T12:28:35.730Z,100301.80
2023-03-01T12:31:56.937Z,100319.11
2023-03-01T12:35:22.619Z,100319.52
2023-03-01T12:38:58.670Z,100315.20
2023-03-01T12:42:22.301Z,100329.77
2023-03-01T12:45:56.124Z,100331.06
2023-03-01T12:49:30.018Z,100319.97
2023-03-01T12:52:49.387Z,100321.04
2023-03-01T12:55:56.917Z,100333.32
2023-03-01T12:59:22.465Z,100336.41
2023-03-01T13:02:59.579Z,100338.31
2023-03-01T13:06:49.232Z,100327.97
2023-03-01T13:10:00.267Z,100342.19
2023-03-01T13:13:16.277Z,100337.19
2023-03-01T13:16:40.537Z,100360.20
2023-03-01T13:19:48.853Z,100345.91
2023-03-01T13:22:54.782Z,100339.75
2023-03-01T13:25:43.655Z,100341.50
2023-03-01T13:28:55.957Z,100345.15
2023-03-01T13:32:11.903Z,100348.41
2023-03-01T13:35:29.820Z,100342.20
2023-03-01T13:39:01.170Z,100348.59
2023-03-01T13:42:09.135Z,100348.23
2023-03-01T13:45:14.862Z,100355.56
2023-03-01T13:48:32.673Z,100358.22
2023-03-01T13:51:40.926Z,100360.83
2023-03-01T13:54:48.653Z,100373.48
2023-03-01T13:57:55.028Z,100376.09
2023-03-01T14:01:02.526Z,100379.77
2023-03-01T14:04:09.241Z,100381.05
2023-03-01T14:07:39.229Z,100380.71
2023-03-01T14:10:54.748Z,100385.22
2023-03-01T14:14:24.132Z,100388.76
2023-03-01T14:17:58.849Z,100399.66
2023-03-01T14:21:05.401Z,100396.30
2023-03-01T14:24:11.302Z,100409.64
2023-03-01T14:27:20.366Z,100414.94
2023-03-01T14:30:35.810Z,100413.12
2023-03-01T14:33:49.176Z,100412.25
2023-03-01T14:36:57.096Z,100418.06
2023-03-01T14:40:02.962Z,100409.72
2023-03-01T14:43:10.801Z,100414.78
2023-03-01T14:46:16.212Z,100418.10
2023-03-01T14:49:31.814Z,100419.61
2023-03-01T14:52:38.415Z,100416.28
2023-03-01T14:55:54.021Z,100421.70
2023-03-01T14:58:53.807Z,100429.80
2023-03-01T15:01:59.951Z,100426.75
2023-03-01T15:05:14.750Z,100430.55
2023-03-01T15:08:20.776Z,100431.63
2023-03-01T15:11:47.106Z,100436.05
2023-03-01T15:15:03.942Z,100446.22
2023-03-01T15:18:10.881Z,100446.34
2023-03-01T15:21:31.514Z,100445.34
2023-03-01T15:24:41.882Z,100456.72
2023-03-01T15:27:49.613Z,100455.58
2023-03-01T15:30:56.267Z,100463.17
2023-03-01T15:34:03.216Z,100458.75
2023-03-01T15:37:09.721Z,100473.53
2023-03-01T15:40:15.385Z,100471.58
2023-03-01T15:43:21.502Z,100477.83
2023-03-01T15:46:36.927Z,100479.03
2023-03-01T15:49:55.406Z,100494.94
2023-03-01T15:53:01.783Z,100489.80
2023-03-01T15:56:07.916Z,100494.34
2023-03-01T15:59:20.069Z,100499.45
2023-03-01T16:02:28.565Z,100502.52
2023-03-01T16:05:46.075Z,100499.48
2023-03-01T16:08:50.793Z,100502.03
2023-03-01T16:11:56.569Z,100491.73
2023-03-01T16:14:55.817Z,100497.98
2023-03-01T16:18:02.484Z,100503.02
2023-03-01T16:21:08.642Z,100514.07
2023-03-01T16:24:15.322Z,100520.91
2023-03-01T16:27:23.352Z,100527.19
2023-03-01T16:30:31.705Z,100512.11
2023-03-01T16:33:37.131Z,100524.52
2023-03-01T16:36:44.842Z,100522.67
2023-03-01T16:39:53.303Z,100521.56
2023-03-01T16:42:59.715Z,100525.25
2023-03-01T16:46:07.383Z,100527.58
2023-03-01T16:49:13.649Z,100531.84
2023-03-01T16:52:19.627Z,100535.15
2023-03-01T16:55:26.470Z,100535.52
2023-03-01T16:58:33.859Z,100535.52
2023-03-01T17:01:42.265Z,100535.86
2023-03-01T17:04:48.449Z,100524.83
2023-03-01T17:07:55.232Z,100525.05
2023-03-01T17:10:54.183Z,100519.87
2023-03-01T17:14:01.588Z,100519.02
2023-03-01T17:17:07.531Z,100521.47
2023-03-01T17:20:14.086Z,100521.55
2023-03-01T17:23:19.382Z,100526.45
2023-03-01T17:26:25.253Z,100529.77
2023-03-01T17:29:30.733Z,100524.59
2023-03-01T17:32:36.510Z,100519.94
2023-03-01T17:35:44.434Z,100512.77
2023-03-01T17:38:49.924Z,100504.80
2023-03-01T17:41:57.563Z,100502.45
2023-03-01T17:45:04.262Z,100496.05
2023-03-01T17:48:10.664Z,100505.05
2023-03-01T17:51:26.430Z,100500.93
2023-03-01T17:54:32.967Z,100504.81
2023-03-01T17:57:39.656Z,100515.10
2023-03-01T18:00:45.220Z,100519.88
2023-03-01T18:03:54.701Z,100520.98
2023-03-01T18:07:00.249Z,100526.00
2023-03-01T18:10:06.269Z,100525.02
2023-03-01T18:13:07.087Z,100533.70
2023-03-01T18:15:52.961Z,100528.37
2023-03-01T18:18:46.400Z,100530.66
2023-03-01T18:21:47.987Z,100530.00
2023-03-01T18:24:46.763Z,100527.80
2023-03-01T18:27:40.974Z,100536.31
2023-03-01T18:30:46.715Z,100535.87
2023-03-01T18:33:53.108Z,100538.31
2023-03-01T18:37:09.271Z,100539.61
2023-03-01T18:40:08.059Z,100552.04
2023-03-01T18:43:14.188Z,100558.20
2023-03-01T18:46:20.262Z,100561.00
2023-03-01T18:49:20.235Z,100563.03
2023-03-01T18:52:13.488Z,100562.78
2023-03-01T18:55:21.628Z,100567.25
2023-03-01T18:58:29.425Z,100563.98
2023-03-01T19:01:40.225Z,100566.53
2023-03-01T19:04:46.912Z,100573.45
2023-03-01T19:07:52.019Z,100579.32
2023-03-01T19:10:58.538Z,100578.66
2023-03-01T19:14:05.252Z,100584.52
2023-03-01T19:17:10.293Z,100576.94
2023-03-01T19:20:15.687Z,100571.27
2023-03-01T19:23:22.158Z,100575.80
2023-03-01T19:26:30.784Z,100571.88
2023-03-01T19:29:37.696Z,100573.41
2023-03-01T19:32:44.860Z,100583.20
2023-03-01T19:35:50.990Z,100573.90
2023-03-01T19:38:57.245Z,100576.41
2023-03-01T19:42:03.601Z,100576.22
2023-03-01T19:45:09.917Z,100586.12
2023-03-01T19:48:17.173Z,100581.70
2023-03-01T19:51:23.639Z,100583.42
2023-03-01T19:54:30.260Z,100576.78
2023-03-01T19:57:35.968Z,100582.16
2023-03-01T20:00:42.330Z,100577.38
2023-03-01T20:03:49.340Z,100577.38
2023-03-01T20:06:56.712Z,100575.92
2023-03-01T20:10:03.309Z,100570.28
2023-03-01T20:13:09.217Z,100575.66
2023-03-01T20:16:15.838Z,100572.20
2023-03-01T20:19:24.256Z,100569.91
2023-03-01T20:22:29.944Z,100571.26
2023-03-01T20:25:35.485Z,100568.71
2023-03-01T20:28:42.454Z,100565.83
2023-03-01T20:31:49.386Z,100564.84
2023-03-01T20:34:55.998Z,100564.70
2023-03-01T20:38:01.334Z,100573.69
2023-03-01T20:41:11.872Z,100573.26
2023-03-01T20:44:18.462Z,100571.89
2023-03-01T20:47:27.310Z,100575.78
2023-03-01T20:50:33.628Z,100582.56
2023-03-01T20:53:40.104Z,100576.25
2023-03-01T20:56:46.538Z,100577.03
2023-03-01T20:59:46.204Z,100580.63
2023-03-01T21:02:31.528Z,100575.24
2023-03-01T21:05:24.964Z,100571.20
2023-03-01T21:08:30.261Z,100578.84
2023-03-01T21:11:36.104Z,100573.25
2023-03-01T21:14:44.012Z,100580.15
2023-03-01T21:17:51.642Z,100576.11
2023-03-01T21:20:58.307Z,100580.31
2023-03-01T21:24:04.020Z,100574.32
2023-03-01T21:27:11.139Z,100570.65
2023-03-01T21:30:16.989Z,100574.11
2023-03-01T21:33:22.449Z,100578.53
2023-03-01T21:36:28.562Z,100576.57
2023-03-01T21:39:37.121Z,100572.16
2023-03-01T21:42:44.142Z,100575.34
2023-03-01T21:45:51.136Z,100570.56
2023-03-01T21:48:58.493Z,100569.47
2023-03-01T21:52:04.555Z,100574.28
2023-03-01T21:55:11.530Z,100569.47
2023-03-01T21:58:17.206Z,100573.51
2023-03-01T22:01:25.902Z,100571.26
2023-03-01T22:04:32.131Z,100580.19
2023-03-01T22:07:36.936Z,100584.47
2023-03-01T22:10:42.430Z,100582.66
2023-03-01T22:13:48.934Z,100588.17
2023-03-01T22:16:54.515Z,100591.06
2023-03-01T22:20:00.169Z,100589.55
2023-03-01T22:23:05.632Z,100590.35
2023-03-01T22:26:12.032Z,100590.09
2023-03-01T22:29:19.924Z,100592.62
2023-03-01T22:32:26.178Z,100591.58
2023-03-01T22:35:32.697Z,100594.10
2023-03-01T22:41:54.761Z,100577.67
2023-03-01T22:45:01.458Z,100583.48
2023-03-01T22:48:07.122Z,100589.95
2023-03-01T22:51:12.844Z,100589.55
2023-03-01T22:54:18.972Z,100587.83
2023-03-01T22:57:25.357Z,100590.80
2023-03-01T23:00:31.214Z,100593.38
2023-03-01T23:03:37.687Z,100588.29
2023-03-01T23:06:46.414Z,100588.78
2023-03-01T23:09:53.078Z,100596.45
2023-03-01T23:12:59.064Z,100584.94
2023-03-01T23:16:09.343Z,100580.73
2023-03-01T23:19:16.163Z,100580.61
2023-03-01T23:22:22.473Z,100578.33
2023-03-01T23:25:21.226Z,100582.94
2023-03-01T23:28:26.437Z,100576.89
2023-03-01T23:31:34.468Z,100566.91
2023-03-01T23:34:41.381Z,100566.53
2023-03-01T23:37:47.841Z,100554.62
2023-03-01T23:40:55.339Z,100555.36
2023-03-01T23:44:04.140Z,100549.50
2023-03-01T23:47:10.985Z,100552.05
2023-03-01T23:50:17.650Z,100555.91
2023-03-01T23:53:33.486Z,100556.77
2023-03-01T23:56:52.653Z,100557.73
2023-03-01T23:59:58.042Z,100554.19
